Grizzly Air Cargo 5138


PASC
Deadhorse Airport
Deadhorse, Alaska, US
PABR
Wiley Post-Will Rogers Memorial Airport
Barrow, Alaska, US

Activity Log

Date Flight Route Aircraft Duration
11/26/2019 GRZ5138 N0407F280 SCC Q48 BRW B738 0h 55m
09/09/2019 GRZ538 SCC OKIKE SEJYY BRW B722 0h 42m
06/27/2019 GRZ538 SCC Y BRW B722 0h 44m
04/15/2019 GRZ538 SCC J507 BRW B722 0h 43m
03/21/2019 GRZ538 SCC OKIKE SEJYY BRW B722 0h 49m

Route Details

Aircraft Information
Primary: Boeing 727-200F
Backup: Boeing 737-800BCF
Route Data
Distance: 206nm
Sched. Duration: 1h 00m
Avg. Duration: 0h 46m (-53m)
Times Flown: 5
Recm'd Route: SCC OKIKE SEJYY BRW
Planned Altitude: 28,000ft
Origin Wx: PASC 060753Z 07021G28KT 3/4SM R06/4500VP6000FT BR VV002 M01/M02 A3002 RMK AO2 PK WND 07030/0716 SLP166 I1003 T10061017
Dest. Wx: PABR 060839Z AUTO 11017KT 3SM BR OVC003 M01/M02 A3007 RMK AO2 I1001 T10061017 TSNO
Notes:

Financial History
Total Freight: 173,597lbs
Average Load: 34,719lbs/flt
Fuel Used: 25,866lbs
Avg. Fuel Used: 5,173lbs/flt
Fuel Expense: $20,434
Avg. Fuel Expense: $4,087
Avg. Fuel Cost: $0.79/lbs
Total Gross Income: $485,079
Pilot Pay: $1,145
Total Expenses: $52,649
Total Revenue: $411,078
Average Revenue: $97,015.89